sensor_id;sensor_type;location;lat;lon;timestamp;noise_LAeq;noise_LA_min;noise_LA_max;noise_LA01;noise_LA95
69618;Laerm;57652;51.436;5.980;2022-09-21T00:00:02;45.63;43.42;48.31;;
69618;Laerm;57652;51.436;5.980;2022-09-21T00:00:13;46.78;43.72;52.91;;
69618;Laerm;57652;51.436;5.980;2022-09-21T00:00:23;45.61;43.05;47.92;;
69618;Laerm;57652;51.436;5.980;2022-09-21T00:00:35;45.32;43.20;47.84;;
69618;Laerm;57652;51.436;5.980;2022-09-21T00:00:45;45.14;43.04;47.45;;
69618;Laerm;57652;51.436;5.980;2022-09-21T00:01:03;45.14;43.23;47.71;;
69618;Laerm;57652;51.436;5.980;2022-09-21T00:01:15;45.29;41.86;47.50;;
69618;Laerm;57652;51.436;5.980;2022-09-21T00:01:29;45.25;43.13;47.31;;
69618;Laerm;57652;51.436;5.980;2022-09-21T00:01:40;45.32;42.77;47.32;;
69618;Laerm;57652;51.436;5.980;2022-09-21T00:01:51;45.66;42.68;47.94;;
69618;Laerm;57652;51.436;5.980;2022-09-21T00:02:01;45.34;42.88;48.11;;
69618;Laerm;57652;51.436;5.980;2022-09-21T00:02:11;45.61;43.40;47.23;;
69618;Laerm;57652;51.436;5.980;2022-09-21T00:02:22;45.35;42.79;48.25;;
69618;Laerm;57652;51.436;5.980;2022-09-21T00:02:32;45.17;43.10;47.19;;
69618;Laerm;57652;51.436;5.980;2022-09-21T00:02:43;45.47;42.88;48.34;;
69618;Laerm;57652;51.436;5.980;2022-09-21T00:02:56;45.83;43.85;48.78;;
69618;Laerm;57652;51.436;5.980;2022-09-21T00:03:07;45.75;43.46;48.39;;
69618;Laerm;57652;51.436;5.980;2022-09-21T00:03:17;45.36;43.06;47.22;;
69618;Laerm;57652;51.436;5.980;2022-09-21T00:03:27;45.41;42.97;47.62;;
69618;Laerm;57652;51.436;5.980;2022-09-21T00:03:38;45.61;43.57;47.88;;
69618;Laerm;57652;51.436;5.980;2022-09-21T00:03:51;45.43;43.32;47.77;;
69618;Laerm;57652;51.436;5.980;2022-09-21T00:04:02;45.43;42.55;49.08;;
69618;Laerm;57652;51.436;5.980;2022-09-21T00:04:13;45.23;42.67;47.25;;
69618;Laerm;57652;51.436;5.980;2022-09-21T00:04:23;45.78;43.42;48.67;;
69618;Laerm;57652;51.436;5.980;2022-09-21T00:04:33;45.71;43.12;48.62;;
69618;Laerm;57652;51.436;5.980;2022-09-21T00:04:44;45.90;43.62;47.99;;
69618;Laerm;57652;51.436;5.980;2022-09-21T00:04:54;45.68;43.64;48.33;;
69618;Laerm;57652;51.436;5.980;2022-09-21T00:05:04;45.41;43.03;47.42;;
69618;Laerm;57652;51.436;5.980;2022-09-21T00:05:17;45.14;43.04;47.40;;
69618;Laerm;57652;51.436;5.980;2022-09-21T00:05:27;45.09;43.10;47.36;;
69618;Laerm;57652;51.436;5.980;2022-09-21T00:05:38;45.12;42.50;47.16;;
69618;Laerm;57652;51.436;5.980;2022-09-21T00:05:48;44.81;42.66;46.74;;
69618;Laerm;57652;51.436;5.980;2022-09-21T00:06:04;44.79;43.03;46.57;;
69618;Laerm;57652;51.436;5.980;2022-09-21T00:06:16;44.95;42.79;47.14;;
69618;Laerm;57652;51.436;5.980;2022-09-21T00:06:28;45.28;43.33;47.79;;
69618;Laerm;57652;51.436;5.980;2022-09-21T00:06:39;45.16;42.83;47.36;;
69618;Laerm;57652;51.436;5.980;2022-09-21T00:06:49;45.28;42.96;47.79;;
69618;Laerm;57652;51.436;5.980;2022-09-21T00:06:59;45.98;43.13;48.74;;
69618;Laerm;57652;51.436;5.980;2022-09-21T00:07:10;45.36;43.30;48.28;;
69618;Laerm;57652;51.436;5.980;2022-09-21T00:07:20;44.75;42.35;46.88;;
69618;Laerm;57652;51.436;5.980;2022-09-21T00:07:30;44.51;42.35;45.98;;
69618;Laerm;57652;51.436;5.980;2022-09-21T00:07:40;44.72;42.49;46.62;;
69618;Laerm;57652;51.436;5.980;2022-09-21T00:07:51;44.66;42.73;46.42;;
69618;Laerm;57652;51.436;5.980;2022-09-21T00:08:02;44.53;42.52;46.93;;
69618;Laerm;57652;51.436;5.980;2022-09-21T00:08:12;44.63;42.48;46.67;;
69618;Laerm;57652;51.436;5.980;2022-09-21T00:08:23;45.23;43.03;47.37;;
69618;Laerm;57652;51.436;5.980;2022-09-21T00:08:34;44.96;42.91;46.87;;
69618;Laerm;57652;51.436;5.980;2022-09-21T00:08:45;44.92;42.70;46.97;;
69618;Laerm;57652;51.436;5.980;2022-09-21T00:08:55;44.59;42.30;46.29;;
69618;Laerm;57652;51.436;5.980;2022-09-21T00:09:06;44.53;42.41;46.69;;
69618;Laerm;57652;51.436;5.980;2022-09-21T00:09:18;44.94;42.51;47.99;;
69618;Laerm;57652;51.436;5.980;2022-09-21T00:09:28;45.20;42.74;48.68;;
69618;Laerm;57652;51.436;5.980;2022-09-21T00:09:38;44.62;42.81;46.40;;
69618;Laerm;57652;51.436;5.980;2022-09-21T00:09:49;44.71;42.31;47.11;;
69618;Laerm;57652;51.436;5.980;2022-09-21T00:09:59;44.62;42.18;46.36;;
69618;Laerm;57652;51.436;5.980;2022-09-21T00:10:09;44.61;42.37;46.42;;
69618;Laerm;57652;51.436;5.980;2022-09-21T00:10:20;44.46;42.38;46.70;;
69618;Laerm;57652;51.436;5.980;2022-09-21T00:10:31;44.47;41.72;46.14;;
69618;Laerm;57652;51.436;5.980;2022-09-21T00:10:41;44.45;42.37;46.47;;
69618;Laerm;57652;51.436;5.980;2022-09-21T00:10:51;44.35;42.11;47.19;;
69618;Laerm;57652;51.436;5.980;2022-09-21T00:11:02;44.25;42.38;46.53;;
69618;Laerm;57652;51.436;5.980;2022-09-21T00:11:18;44.51;42.35;46.74;;
69618;Laerm;57652;51.436;5.980;2022-09-21T00:11:29;44.49;42.31;46.97;;
69618;Laerm;57652;51.436;5.980;2022-09-21T00:11:39;44.35;42.16;46.43;;
69618;Laerm;57652;51.436;5.980;2022-09-21T00:11:49;44.21;41.68;46.19;;
69618;Laerm;57652;51.436;5.980;2022-09-21T00:12:00;44.48;42.70;46.20;;
69618;Laerm;57652;51.436;5.980;2022-09-21T00:12:11;44.11;41.73;46.29;;
69618;Laerm;57652;51.436;5.980;2022-09-21T00:12:21;44.14;41.90;46.79;;
69618;Laerm;57652;51.436;5.980;2022-09-21T00:12:32;44.27;42.75;46.16;;
69618;Laerm;57652;51.436;5.980;2022-09-21T00:12:43;44.12;42.12;46.09;;
69618;Laerm;57652;51.436;5.980;2022-09-21T00:12:54;44.95;42.61;51.09;;
69618;Laerm;57652;51.436;5.980;2022-09-21T00:13:05;44.88;42.47;46.73;;
69618;Laerm;57652;51.436;5.980;2022-09-21T00:13:17;44.69;42.73;47.54;;
69618;Laerm;57652;51.436;5.980;2022-09-21T00:13:28;44.79;42.74;46.84;;
69618;Laerm;57652;51.436;5.980;2022-09-21T00:13:39;44.64;42.39;46.42;;
69618;Laerm;57652;51.436;5.980;2022-09-21T00:13:52;44.87;42.92;47.20;;
69618;Laerm;57652;51.436;5.980;2022-09-21T00:14:11;44.81;42.58;47.22;;
69618;Laerm;57652;51.436;5.980;2022-09-21T00:14:21;44.98;42.77;47.70;;
69618;Laerm;57652;51.436;5.980;2022-09-21T00:14:32;44.99;43.00;46.94;;
69618;Laerm;57652;51.436;5.980;2022-09-21T00:14:42;44.82;42.78;47.39;;
69618;Laerm;57652;51.436;5.980;2022-09-21T00:14:52;44.95;42.97;46.72;;
69618;Laerm;57652;51.436;5.980;2022-09-21T00:15:07;45.06;43.20;46.98;;
69618;Laerm;57652;51.436;5.980;2022-09-21T00:15:17;45.09;43.24;47.45;;
69618;Laerm;57652;51.436;5.980;2022-09-21T00:15:28;44.97;42.59;47.51;;
69618;Laerm;57652;51.436;5.980;2022-09-21T00:15:39;44.89;42.49;47.49;;
69618;Laerm;57652;51.436;5.980;2022-09-21T00:15:50;44.55;42.55;46.77;;
69618;Laerm;57652;51.436;5.980;2022-09-21T00:16:00;44.53;42.51;47.32;;
69618;Laerm;57652;51.436;5.980;2022-09-21T00:16:10;44.76;42.57;46.98;;
69618;Laerm;57652;51.436;5.980;2022-09-21T00:16:21;45.42;42.85;47.30;;
69618;Laerm;57652;51.436;5.980;2022-09-21T00:16:31;45.19;42.60;47.13;;
69618;Laerm;57652;51.436;5.980;2022-09-21T00:16:42;45.54;43.20;47.63;;
69618;Laerm;57652;51.436;5.980;2022-09-21T00:16:52;45.87;43.65;48.70;;
69618;Laerm;57652;51.436;5.980;2022-09-21T00:17:03;45.58;43.72;49.14;;
69618;Laerm;57652;51.436;5.980;2022-09-21T00:17:13;45.73;43.66;48.66;;
69618;Laerm;57652;51.436;5.980;2022-09-21T00:17:23;45.56;43.01;48.11;;
69618;Laerm;57652;51.436;5.980;2022-09-21T00:17:34;45.18;42.63;47.50;;
69618;Laerm;57652;51.436;5.980;2022-09-21T00:17:45;45.21;43.07;47.53;;
69618;Laerm;57652;51.436;5.980;2022-09-21T00:17:57;44.83;43.04;46.45;;
69618;Laerm;57652;51.436;5.980;2022-09-21T00:18:08;44.99;42.86;47.50;;
69618;Laerm;57652;51.436;5.980;2022-09-21T00:18:19;45.28;43.25;47.28;;
69618;Laerm;57652;51.436;5.980;2022-09-21T00:18:29;45.36;43.26;47.50;;
69618;Laerm;57652;51.436;5.980;2022-09-21T00:18:40;45.32;42.55;48.12;;
69618;Laerm;57652;51.436;5.980;2022-09-21T00:18:50;45.07;43.13;47.52;;
69618;Laerm;57652;51.436;5.980;2022-09-21T00:19:01;45.17;42.85;47.22;;
69618;Laerm;57652;51.436;5.980;2022-09-21T00:19:11;45.28;42.96;48.61;;
69618;Laerm;57652;51.436;5.980;2022-09-21T00:19:21;45.50;43.51;48.14;;
69618;Laerm;57652;51.436;5.980;2022-09-21T00:19:33;45.71;43.76;48.33;;
69618;Laerm;57652;51.436;5.980;2022-09-21T00:19:43;45.84;43.44;48.77;;
69618;Laerm;57652;51.436;5.980;2022-09-21T00:19:53;45.52;42.97;47.62;;
69618;Laerm;57652;51.436;5.980;2022-09-21T00:20:04;45.54;43.59;48.03;;
69618;Laerm;57652;51.436;5.980;2022-09-21T00:20:15;45.42;42.94;47.30;;
69618;Laerm;57652;51.436;5.980;2022-09-21T00:20:25;45.62;43.63;47.54;;
69618;Laerm;57652;51.436;5.980;2022-09-21T00:20:39;45.41;43.24;48.36;;
69618;Laerm;57652;51.436;5.980;2022-09-21T00:20:50;45.38;43.47;48.41;;
69618;Laerm;57652;51.436;5.980;2022-09-21T00:21:08;45.41;43.48;47.87;;
69618;Laerm;57652;51.436;5.980;2022-09-21T00:21:18;45.25;42.86;47.52;;
69618;Laerm;57652;51.436;5.980;2022-09-21T00:21:30;45.56;42.31;47.88;;
69618;Laerm;57652;51.436;5.980;2022-09-21T00:21:40;45.13;42.95;47.46;;
69618;Laerm;57652;51.436;5.980;2022-09-21T00:21:54;45.21;42.71;47.99;;
69618;Laerm;57652;51.436;5.980;2022-09-21T00:22:04;45.58;43.09;48.52;;
69618;Laerm;57652;51.436;5.980;2022-09-21T00:22:16;45.84;43.53;49.82;;
69618;Laerm;57652;51.436;5.980;2022-09-21T00:22:26;45.64;43.68;48.67;;
69618;Laerm;57652;51.436;5.980;2022-09-21T00:22:37;45.80;43.81;48.38;;
69618;Laerm;57652;51.436;5.980;2022-09-21T00:22:48;45.35;42.30;50.90;;
69618;Laerm;57652;51.436;5.980;2022-09-21T00:22:58;45.73;43.22;50.27;;
69618;Laerm;57652;51.436;5.980;2022-09-21T00:23:08;46.41;43.53;49.62;;
69618;Laerm;57652;51.436;5.980;2022-09-21T00:23:19;46.62;44.01;49.70;;
69618;Laerm;57652;51.436;5.980;2022-09-21T00:23:29;46.33;43.47;49.37;;
69618;Laerm;57652;51.436;5.980;2022-09-21T00:23:40;46.33;43.50;49.29;;
69618;Laerm;57652;51.436;5.980;2022-09-21T00:23:50;46.13;43.37;49.61;;
69618;Laerm;57652;51.436;5.980;2022-09-21T00:24:01;46.54;43.75;49.99;;
69618;Laerm;57652;51.436;5.980;2022-09-21T00:24:11;46.60;43.02;49.22;;
69618;Laerm;57652;51.436;5.980;2022-09-21T00:24:22;46.43;43.51;50.64;;
69618;Laerm;57652;51.436;5.980;2022-09-21T00:24:32;46.06;42.71;48.56;;
69618;Laerm;57652;51.436;5.980;2022-09-21T00:24:43;45.86;42.77;49.77;;
69618;Laerm;57652;51.436;5.980;2022-09-21T00:24:54;45.88;42.72;48.87;;
69618;Laerm;57652;51.436;5.980;2022-09-21T00:25:05;46.31;42.34;49.45;;
69618;Laerm;57652;51.436;5.980;2022-09-21T00:25:16;46.28;43.34;50.35;;
69618;Laerm;57652;51.436;5.980;2022-09-21T00:25:26;45.90;43.39;48.12;;
69618;Laerm;57652;51.436;5.980;2022-09-21T00:25:36;45.71;43.26;48.11;;
69618;Laerm;57652;51.436;5.980;2022-09-21T00:25:47;45.96;43.15;47.77;;
69618;Laerm;57652;51.436;5.980;2022-09-21T00:26:04;45.59;42.77;47.73;;
69618;Laerm;57652;51.436;5.980;2022-09-21T00:26:15;45.47;42.63;47.98;;
69618;Laerm;57652;51.436;5.980;2022-09-21T00:26:26;45.57;43.17;47.82;;
69618;Laerm;57652;51.436;5.980;2022-09-21T00:26:37;45.28;43.13;47.17;;
69618;Laerm;57652;51.436;5.980;2022-09-21T00:26:47;45.13;43.16;47.45;;
69618;Laerm;57652;51.436;5.980;2022-09-21T00:26:57;45.21;42.89;47.28;;
69618;Laerm;57652;51.436;5.980;2022-09-21T00:27:07;45.57;43.53;47.75;;
69618;Laerm;57652;51.436;5.980;2022-09-21T00:27:18;45.74;43.02;47.70;;
69618;Laerm;57652;51.436;5.980;2022-09-21T00:27:28;45.75;43.36;47.96;;
69618;Laerm;57652;51.436;5.980;2022-09-21T00:27:39;45.43;42.90;47.52;;
69618;Laerm;57652;51.436;5.980;2022-09-21T00:27:50;45.94;43.57;47.65;;
69618;Laerm;57652;51.436;5.980;2022-09-21T00:28:01;45.93;43.96;48.54;;
69618;Laerm;57652;51.436;5.980;2022-09-21T00:28:11;45.63;43.40;48.03;;
69618;Laerm;57652;51.436;5.980;2022-09-21T00:28:22;45.63;43.43;47.58;;
69618;Laerm;57652;51.436;5.980;2022-09-21T00:28:32;45.47;43.50;48.53;;
69618;Laerm;57652;51.436;5.980;2022-09-21T00:28:43;45.60;43.05;47.29;;
69618;Laerm;57652;51.436;5.980;2022-09-21T00:28:54;45.89;43.98;49.02;;
69618;Laerm;57652;51.436;5.980;2022-09-21T00:29:05;46.00;43.79;49.28;;
69618;Laerm;57652;51.436;5.980;2022-09-21T00:29:15;46.47;44.18;48.87;;
69618;Laerm;57652;51.436;5.980;2022-09-21T00:29:26;46.25;43.64;48.78;;
69618;Laerm;57652;51.436;5.980;2022-09-21T00:29:36;45.58;43.26;48.08;;
69618;Laerm;57652;51.436;5.980;2022-09-21T00:29:46;45.43;43.25;47.72;;
69618;Laerm;57652;51.436;5.980;2022-09-21T00:29:58;45.55;42.85;47.54;;
69618;Laerm;57652;51.436;5.980;2022-09-21T00:30:11;45.72;43.42;48.24;;
69618;Laerm;57652;51.436;5.980;2022-09-21T00:30:21;45.58;43.50;47.86;;
69618;Laerm;57652;51.436;5.980;2022-09-21T00:30:32;45.30;42.94;47.17;;
69618;Laerm;57652;51.436;5.980;2022-09-21T00:30:42;45.46;43.84;47.28;;
69618;Laerm;57652;51.436;5.980;2022-09-21T00:30:53;45.41;43.07;47.87;;
69618;Laerm;57652;51.436;5.980;2022-09-21T00:31:03;45.51;43.23;47.84;;
69618;Laerm;57652;51.436;5.980;2022-09-21T00:31:15;45.68;43.56;48.10;;
69618;Laerm;57652;51.436;5.980;2022-09-21T00:31:27;45.59;43.35;48.15;;
69618;Laerm;57652;51.436;5.980;2022-09-21T00:31:38;45.45;42.94;47.35;;
69618;Laerm;57652;51.436;5.980;2022-09-21T00:31:48;45.61;43.08;47.88;;
69618;Laerm;57652;51.436;5.980;2022-09-21T00:31:58;45.48;42.75;47.56;;
69618;Laerm;57652;51.436;5.980;2022-09-21T00:32:09;45.96;43.86;52.80;;
69618;Laerm;57652;51.436;5.980;2022-09-21T00:32:19;45.71;43.33;48.27;;
69618;Laerm;57652;51.436;5.980;2022-09-21T00:32:30;45.73;43.20;47.83;;
69618;Laerm;57652;51.436;5.980;2022-09-21T00:32:40;46.31;43.76;48.56;;
69618;Laerm;57652;51.436;5.980;2022-09-21T00:32:51;45.37;43.11;47.90;;
69618;Laerm;57652;51.436;5.980;2022-09-21T00:33:02;45.85;44.03;48.16;;
69618;Laerm;57652;51.436;5.980;2022-09-21T00:33:12;45.70;43.52;48.28;;
69618;Laerm;57652;51.436;5.980;2022-09-21T00:33:23;45.59;42.86;48.66;;
69618;Laerm;57652;51.436;5.980;2022-09-21T00:33:34;45.77;43.32;48.99;;
69618;Laerm;57652;51.436;5.980;2022-09-21T00:33:44;45.92;43.91;47.87;;
69618;Laerm;57652;51.436;5.980;2022-09-21T00:33:54;45.98;43.52;48.12;;
69618;Laerm;57652;51.436;5.980;2022-09-21T00:34:05;45.83;43.80;47.75;;
69618;Laerm;57652;51.436;5.980;2022-09-21T00:34:16;46.22;43.33;48.79;;
69618;Laerm;57652;51.436;5.980;2022-09-21T00:34:27;45.48;43.31;47.78;;
69618;Laerm;57652;51.436;5.980;2022-09-21T00:34:37;45.37;43.35;47.38;;
69618;Laerm;57652;51.436;5.980;2022-09-21T00:34:47;45.04;43.25;47.38;;
69618;Laerm;57652;51.436;5.980;2022-09-21T00:34:58;45.21;42.84;47.17;;
69618;Laerm;57652;51.436;5.980;2022-09-21T00:35:09;45.45;43.57;47.87;;
69618;Laerm;57652;51.436;5.980;2022-09-21T00:35:19;45.47;42.94;47.98;;
69618;Laerm;57652;51.436;5.980;2022-09-21T00:35:29;45.19;43.25;47.64;;
69618;Laerm;57652;51.436;5.980;2022-09-21T00:35:40;45.40;42.73;48.68;;
69618;Laerm;57652;51.436;5.980;2022-09-21T00:35:50;45.29;42.39;47.88;;
69618;Laerm;57652;51.436;5.980;2022-09-21T00:36:01;45.75;42.69;48.47;;
69618;Laerm;57652;51.436;5.980;2022-09-21T00:36:15;45.50;43.23;47.77;;
69618;Laerm;57652;51.436;5.980;2022-09-21T00:36:26;45.45;43.40;47.46;;
69618;Laerm;57652;51.436;5.980;2022-09-21T00:36:37;45.20;43.28;47.78;;
69618;Laerm;57652;51.436;5.980;2022-09-21T00:36:47;45.16;43.03;47.11;;
69618;Laerm;57652;51.436;5.980;2022-09-21T00:36:58;46.24;43.81;48.82;;
69618;Laerm;57652;51.436;5.980;2022-09-21T00:37:08;46.66;43.56;51.60;;
69618;Laerm;57652;51.436;5.980;2022-09-21T00:37:19;45.77;43.29;48.98;;
69618;Laerm;57652;51.436;5.980;2022-09-21T00:37:29;45.55;43.05;49.08;;
69618;Laerm;57652;51.436;5.980;2022-09-21T00:37:40;45.15;42.98;47.46;;
69618;Laerm;57652;51.436;5.980;2022-09-21T00:37:50;45.61;43.31;48.86;;
69618;Laerm;57652;51.436;5.980;2022-09-21T00:38:01;45.20;43.16;47.66;;
69618;Laerm;57652;51.436;5.980;2022-09-21T00:38:11;45.10;42.23;46.85;;
69618;Laerm;57652;51.436;5.980;2022-09-21T00:38:22;45.22;43.01;47.54;;
69618;Laerm;57652;51.436;5.980;2022-09-21T00:38:33;45.93;43.68;48.21;;
69618;Laerm;57652;51.436;5.980;2022-09-21T00:38:44;45.88;43.19;48.85;;
69618;Laerm;57652;51.436;5.980;2022-09-21T00:38:56;45.98;43.72;49.10;;
69618;Laerm;57652;51.436;5.980;2022-09-21T00:39:08;45.86;43.82;48.89;;
69618;Laerm;57652;51.436;5.980;2022-09-21T00:39:18;45.93;43.42;48.06;;
69618;Laerm;57652;51.436;5.980;2022-09-21T00:39:28;45.79;43.69;50.67;;
69618;Laerm;57652;51.436;5.980;2022-09-21T00:39:39;46.24;44.02;49.01;;
69618;Laerm;57652;51.436;5.980;2022-09-21T00:39:49;46.27;44.31;48.93;;
69618;Laerm;57652;51.436;5.980;2022-09-21T00:40:00;46.19;43.63;49.12;;
69618;Laerm;57652;51.436;5.980;2022-09-21T00:40:11;45.92;43.91;48.87;;
69618;Laerm;57652;51.436;5.980;2022-09-21T00:40:21;45.70;43.81;48.12;;
69618;Laerm;57652;51.436;5.980;2022-09-21T00:40:32;45.11;43.46;46.97;;
69618;Laerm;57652;51.436;5.980;2022-09-21T00:40:42;45.50;42.64;48.27;;
69618;Laerm;57652;51.436;5.980;2022-09-21T00:40:52;45.60;43.11;48.20;;
69618;Laerm;57652;51.436;5.980;2022-09-21T00:41:03;45.32;43.01;47.56;;
69618;Laerm;57652;51.436;5.980;2022-09-21T00:41:14;45.43;43.01;48.12;;
69618;Laerm;57652;51.436;5.980;2022-09-21T00:41:24;45.83;43.91;48.33;;
69618;Laerm;57652;51.436;5.980;2022-09-21T00:41:34;45.71;43.67;48.01;;
69618;Laerm;57652;51.436;5.980;2022-09-21T00:41:45;45.77;43.56;47.88;;
69618;Laerm;57652;51.436;5.980;2022-09-21T00:41:55;45.80;43.76;47.48;;
69618;Laerm;57652;51.436;5.980;2022-09-21T00:42:33;45.90;43.11;48.26;;
69618;Laerm;57652;51.436;5.980;2022-09-21T00:42:44;45.87;43.74;47.94;;
69618;Laerm;57652;51.436;5.980;2022-09-21T00:43:09;45.61;43.43;48.49;;
69618;Laerm;57652;51.436;5.980;2022-09-21T00:43:19;46.02;42.75;49.20;;
69618;Laerm;57652;51.436;5.980;2022-09-21T00:43:32;46.00;43.96;48.39;;
69618;Laerm;57652;51.436;5.980;2022-09-21T00:44:09;45.79;43.80;47.60;;
69618;Laerm;57652;51.436;5.980;2022-09-21T00:44:19;46.10;43.34;48.65;;
69618;Laerm;57652;51.436;5.980;2022-09-21T00:44:32;45.92;43.20;48.63;;
69618;Laerm;57652;51.436;5.980;2022-09-21T00:44:42;45.67;43.99;47.75;;
69618;Laerm;57652;51.436;5.980;2022-09-21T00:44:53;45.52;43.58;47.57;;
69618;Laerm;57652;51.436;5.980;2022-09-21T00:45:04;45.34;43.12;47.52;;
69618;Laerm;57652;51.436;5.980;2022-09-21T00:45:14;45.64;43.37;48.18;;
69618;Laerm;57652;51.436;5.980;2022-09-21T00:45:30;45.47;43.28;47.48;;
69618;Laerm;57652;51.436;5.980;2022-09-21T00:45:41;45.47;43.30;47.71;;
69618;Laerm;57652;51.436;5.980;2022-09-21T00:46:05;46.09;43.69;48.42;;
69618;Laerm;57652;51.436;5.980;2022-09-21T00:46:25;45.80;43.42;48.34;;
69618;Laerm;57652;51.436;5.980;2022-09-21T00:46:36;45.85;44.02;48.06;;
69618;Laerm;57652;51.436;5.980;2022-09-21T00:46:48;46.34;43.85;48.86;;
69618;Laerm;57652;51.436;5.980;2022-09-21T00:47:01;45.95;43.55;48.14;;
69618;Laerm;57652;51.436;5.980;2022-09-21T00:47:13;45.59;43.16;48.69;;
69618;Laerm;57652;51.436;5.980;2022-09-21T00:47:30;45.64;43.73;47.62;;
69618;Laerm;57652;51.436;5.980;2022-09-21T00:47:43;46.11;43.30;48.46;;
69618;Laerm;57652;51.436;5.980;2022-09-21T00:47:54;45.83;43.51;48.55;;
69618;Laerm;57652;51.436;5.980;2022-09-21T00:48:04;45.69;43.24;47.40;;
69618;Laerm;57652;51.436;5.980;2022-09-21T00:48:15;45.88;44.07;47.70;;
69618;Laerm;57652;51.436;5.980;2022-09-21T00:48:26;46.11;43.66;48.34;;
69618;Laerm;57652;51.436;5.980;2022-09-21T00:48:36;46.07;44.10;47.88;;
69618;Laerm;57652;51.436;5.980;2022-09-21T00:48:46;45.88;43.58;48.47;;
69618;Laerm;57652;51.436;5.980;2022-09-21T00:48:57;45.79;43.98;48.94;;
69618;Laerm;57652;51.436;5.980;2022-09-21T00:49:07;45.78;43.12;47.73;;
69618;Laerm;57652;51.436;5.980;2022-09-21T00:49:18;45.77;43.20;47.78;;
69618;Laerm;57652;51.436;5.980;2022-09-21T00:49:29;45.53;43.58;48.01;;
69618;Laerm;57652;51.436;5.980;2022-09-21T00:49:41;45.76;43.79;47.93;;
69618;Laerm;57652;51.436;5.980;2022-09-21T00:49:52;45.63;43.58;47.76;;
69618;Laerm;57652;51.436;5.980;2022-09-21T00:50:13;45.60;43.31;47.35;;
69618;Laerm;57652;51.436;5.980;2022-09-21T00:50:24;45.35;43.07;48.09;;
69618;Laerm;57652;51.436;5.980;2022-09-21T00:50:35;45.90;43.66;48.36;;
69618;Laerm;57652;51.436;5.980;2022-09-21T00:50:49;45.70;43.15;49.15;;
69618;Laerm;57652;51.436;5.980;2022-09-21T00:51:04;45.70;43.42;48.13;;
69618;Laerm;57652;51.436;5.980;2022-09-21T00:51:15;45.86;43.75;47.64;;
69618;Laerm;57652;51.436;5.980;2022-09-21T00:51:25;45.61;43.58;47.54;;
69618;Laerm;57652;51.436;5.980;2022-09-21T00:51:36;45.51;43.53;47.90;;
69618;Laerm;57652;51.436;5.980;2022-09-21T00:51:47;45.25;43.23;48.69;;
69618;Laerm;57652;51.436;5.980;2022-09-21T00:51:58;45.18;42.95;47.24;;
69618;Laerm;57652;51.436;5.980;2022-09-21T00:52:11;45.27;42.28;47.44;;
69618;Laerm;57652;51.436;5.980;2022-09-21T00:52:25;45.32;43.19;47.62;;
69618;Laerm;57652;51.436;5.980;2022-09-21T00:52:38;45.22;43.04;47.02;;
69618;Laerm;57652;51.436;5.980;2022-09-21T00:52:51;45.47;42.56;48.74;;
69618;Laerm;57652;51.436;5.980;2022-09-21T00:53:03;45.29;43.21;48.21;;
69618;Laerm;57652;51.436;5.980;2022-09-21T00:53:13;45.14;43.02;46.86;;
69618;Laerm;57652;51.436;5.980;2022-09-21T00:53:25;45.02;43.05;47.39;;
69618;Laerm;57652;51.436;5.980;2022-09-21T00:53:36;44.78;42.13;48.13;;
69618;Laerm;57652;51.436;5.980;2022-09-21T00:53:47;45.07;42.91;47.48;;
69618;Laerm;57652;51.436;5.980;2022-09-21T00:54:02;45.32;43.45;47.68;;
69618;Laerm;57652;51.436;5.980;2022-09-21T00:54:18;45.56;43.63;48.14;;
69618;Laerm;57652;51.436;5.980;2022-09-21T00:54:38;45.37;43.02;48.77;;
69618;Laerm;57652;51.436;5.980;2022-09-21T00:54:51;45.28;43.21;48.07;;
69618;Laerm;57652;51.436;5.980;2022-09-21T00:55:07;45.00;43.07;47.03;;
69618;Laerm;57652;51.436;5.980;2022-09-21T00:55:19;45.48;43.13;47.96;;
69618;Laerm;57652;51.436;5.980;2022-09-21T00:55:32;45.44;43.31;48.79;;
69618;Laerm;57652;51.436;5.980;2022-09-21T00:55:44;44.93;42.84;47.59;;
69618;Laerm;57652;51.436;5.980;2022-09-21T00:55:56;45.17;43.22;48.22;;
69618;Laerm;57652;51.436;5.980;2022-09-21T00:56:08;45.49;43.37;47.49;;
69618;Laerm;57652;51.436;5.980;2022-09-21T00:56:20;45.47;43.22;47.57;;
69618;Laerm;57652;51.436;5.980;2022-09-21T00:56:31;45.57;43.79;47.27;;
69618;Laerm;57652;51.436;5.980;2022-09-21T00:56:43;45.56;43.87;47.65;;
69618;Laerm;57652;51.436;5.980;2022-09-21T00:56:54;46.05;43.57;49.02;;
69618;Laerm;57652;51.436;5.980;2022-09-21T00:57:05;45.82;43.35;47.88;;
69618;Laerm;57652;51.436;5.980;2022-09-21T00:57:17;45.61;43.62;47.61;;
69618;Laerm;57652;51.436;5.980;2022-09-21T00:57:30;45.80;43.77;48.06;;
69618;Laerm;57652;51.436;5.980;2022-09-21T00:57:41;45.03;42.72;47.36;;
69618;Laerm;57652;51.436;5.980;2022-09-21T00:57:54;45.57;43.33;47.69;;
69618;Laerm;57652;51.436;5.980;2022-09-21T00:58:06;45.75;43.64;49.01;;
69618;Laerm;57652;51.436;5.980;2022-09-21T00:58:19;46.20;43.65;49.24;;
69618;Laerm;57652;51.436;5.980;2022-09-21T00:58:34;45.65;43.29;48.48;;
69618;Laerm;57652;51.436;5.980;2022-09-21T00:58:48;45.25;43.16;47.37;;
69618;Laerm;57652;51.436;5.980;2022-09-21T00:59:00;45.12;42.89;47.93;;
69618;Laerm;57652;51.436;5.980;2022-09-21T00:59:10;45.36;42.96;48.02;;
69618;Laerm;57652;51.436;5.980;2022-09-21T00:59:22;45.27;43.33;47.57;;
69618;Laerm;57652;51.436;5.980;2022-09-21T00:59:33;45.12;42.90;47.14;;
69618;Laerm;57652;51.436;5.980;2022-09-21T00:59:44;45.31;42.24;47.40;;
69618;Laerm;57652;51.436;5.980;2022-09-21T00:59:54;45.66;43.33;49.41;;
69618;Laerm;57652;51.436;5.980;2022-09-21T01:00:07;45.46;43.07;51.52;;
69618;Laerm;57652;51.436;5.980;2022-09-21T01:00:18;46.32;43.68;52.33;;
69618;Laerm;57652;51.436;5.980;2022-09-21T01:00:28;45.52;43.11;48.02;;
69618;Laerm;57652;51.436;5.980;2022-09-21T01:00:39;45.32;43.35;47.49;;
69618;Laerm;57652;51.436;5.980;2022-09-21T01:00:49;45.40;43.33;47.32;;
69618;Laerm;57652;51.436;5.980;2022-09-21T01:00:59;45.35;42.61;48.21;;
69618;Laerm;57652;51.436;5.980;2022-09-21T01:01:11;45.27;42.41;47.47;;
69618;Laerm;57652;51.436;5.980;2022-09-21T01:01:21;45.70;43.49;48.27;;
69618;Laerm;57652;51.436;5.980;2022-09-21T01:01:33;45.73;42.94;48.77;;
69618;Laerm;57652;51.436;5.980;2022-09-21T01:01:43;45.81;43.86;47.92;;
69618;Laerm;57652;51.436;5.980;2022-09-21T01:01:54;45.95;43.81;48.73;;
69618;Laerm;57652;51.436;5.980;2022-09-21T01:02:05;45.86;43.88;48.36;;
69618;Laerm;57652;51.436;5.980;2022-09-21T01:02:16;45.62;43.41;48.15;;
69618;Laerm;57652;51.436;5.980;2022-09-21T01:02:27;45.52;43.55;47.45;;
69618;Laerm;57652;51.436;5.980;2022-09-21T01:02:37;45.57;43.68;47.74;;
69618;Laerm;57652;51.436;5.980;2022-09-21T01:02:48;45.65;42.84;48.06;;
69618;Laerm;57652;51.436;5.980;2022-09-21T01:02:58;45.60;43.32;47.81;;
69618;Laerm;57652;51.436;5.980;2022-09-21T01:03:11;45.73;42.99;48.02;;
69618;Laerm;57652;51.436;5.980;2022-09-21T01:03:21;45.52;43.41;47.75;;
69618;Laerm;57652;51.436;5.980;2022-09-21T01:03:32;46.06;43.75;48.82;;
69618;Laerm;57652;51.436;5.980;2022-09-21T01:03:42;45.76;43.15;47.81;;
69618;Laerm;57652;51.436;5.980;2022-09-21T01:03:54;45.59;42.89;47.35;;
69618;Laerm;57652;51.436;5.980;2022-09-21T01:04:06;45.77;43.20;48.58;;